createdAt,value
2017-12-23T00:01:24.467Z,95.30
2017-12-23T00:03:51.960Z,95.30
2017-12-23T00:06:19.428Z,95.31
2017-12-23T00:08:46.897Z,95.38
2017-12-23T00:11:14.376Z,95.49
2017-12-23T00:13:41.855Z,95.51
2017-12-23T00:16:09.414Z,95.64
2017-12-23T00:18:36.877Z,95.69
2017-12-23T00:21:04.361Z,95.78
2017-12-23T00:23:31.832Z,95.89
2017-12-23T00:25:59.294Z,95.82
2017-12-23T00:28:26.824Z,95.74
2017-12-23T00:30:54.289Z,95.88
2017-12-23T00:33:21.805Z,96.01
2017-12-23T00:35:49.268Z,95.97
2017-12-23T00:38:16.758Z,96.00
2017-12-23T00:40:44.228Z,95.48
2017-12-23T00:43:11.688Z,95.61
2017-12-23T00:45:39.175Z,95.60
2017-12-23T00:48:06.657Z,95.65
2017-12-23T00:50:34.141Z,95.39
2017-12-23T00:53:01.604Z,95.54
2017-12-23T00:55:29.093Z,95.48
2017-12-23T00:57:56.560Z,95.45
2017-12-23T01:00:24.024Z,95.51
2017-12-23T01:02:51.509Z,95.63
2017-12-23T01:05:18.972Z,95.80
2017-12-23T01:07:46.440Z,95.84
2017-12-23T01:10:13.921Z,95.87
2017-12-23T01:12:41.389Z,96.05
2017-12-23T01:15:08.852Z,96.15
2017-12-23T01:17:36.369Z,96.17
2017-12-23T01:20:03.832Z,95.96
2017-12-23T01:22:31.312Z,95.70
2017-12-23T01:24:58.797Z,95.97
2017-12-23T01:27:26.260Z,96.09
2017-12-23T01:29:53.729Z,96.23
2017-12-23T01:32:21.211Z,96.22
2017-12-23T01:34:48.680Z,96.30
2017-12-23T01:37:16.148Z,96.03
2017-12-23T01:39:43.637Z,96.07
2017-12-23T01:42:11.100Z,96.11
2017-12-23T01:44:38.560Z,95.87
2017-12-23T01:47:06.048Z,95.76
2017-12-23T01:49:33.512Z,95.88
2017-12-23T01:52:00.976Z,96.04
2017-12-23T01:54:28.464Z,95.76
2017-12-23T01:56:55.936Z,95.76
2017-12-23T01:59:23.413Z,95.85
2017-12-23T02:01:50.892Z,95.87
2017-12-23T02:04:18.356Z,95.93
2017-12-23T02:06:45.840Z,95.96
2017-12-23T02:09:13.397Z,95.95
2017-12-23T02:11:40.884Z,95.82
2017-12-23T02:14:08.356Z,95.74
2017-12-23T02:16:35.842Z,95.55
2017-12-23T02:19:03.321Z,95.37
2017-12-23T02:21:30.800Z,95.12
2017-12-23T02:23:58.268Z,95.23
2017-12-23T02:26:25.749Z,95.47
2017-12-23T02:28:53.216Z,95.44
2017-12-23T02:31:20.704Z,95.45
2017-12-23T02:33:48.180Z,95.00
2017-12-23T02:36:15.673Z,95.10
2017-12-23T02:38:43.196Z,94.82
2017-12-23T02:41:10.688Z,94.91
2017-12-23T02:43:38.212Z,94.59
2017-12-23T02:46:05.693Z,94.87
2017-12-23T02:48:33.996Z,95.23
2017-12-23T02:51:01.477Z,95.48
2017-12-23T02:53:28.945Z,95.53
2017-12-23T02:55:56.429Z,95.42
2017-12-23T02:58:23.896Z,95.43
2017-12-23T03:00:51.377Z,95.54
2017-12-23T03:03:18.844Z,95.30
2017-12-23T03:05:46.324Z,95.57
2017-12-23T03:08:13.793Z,95.58
2017-12-23T03:10:41.276Z,95.60
2017-12-23T03:13:08.829Z,95.58
2017-12-23T03:15:36.309Z,95.61
2017-12-23T03:18:03.773Z,95.63
2017-12-23T03:20:31.256Z,95.65
2017-12-23T03:22:58.725Z,95.55
2017-12-23T03:25:26.205Z,95.60
2017-12-23T03:27:53.669Z,95.74
2017-12-23T03:30:21.145Z,95.66
2017-12-23T03:32:48.607Z,95.73
2017-12-23T03:35:16.089Z,95.56
2017-12-23T03:37:43.552Z,95.71
2017-12-23T03:40:11.033Z,95.77
2017-12-23T03:42:38.496Z,95.86
2017-12-23T03:45:05.993Z,95.95
2017-12-23T03:47:33.457Z,95.98
2017-12-23T03:50:00.945Z,95.95
2017-12-23T03:52:28.420Z,96.02
2017-12-23T03:54:55.900Z,96.25
2017-12-23T03:57:23.361Z,96.32
2017-12-23T03:59:50.836Z,96.46
2017-12-23T04:02:18.296Z,96.42
2017-12-23T04:04:45.781Z,96.31
2017-12-23T04:07:13.286Z,96.42
2017-12-23T04:09:40.768Z,96.54
2017-12-23T04:12:08.230Z,96.55
2017-12-23T04:14:35.721Z,96.28
2017-12-23T04:17:03.188Z,96.37
2017-12-23T04:19:30.671Z,96.34
2017-12-23T04:21:58.135Z,95.99
2017-12-23T04:24:25.596Z,95.78
2017-12-23T04:26:53.078Z,95.97
2017-12-23T04:29:20.548Z,95.91
2017-12-23T04:31:48.033Z,95.83
2017-12-23T04:34:15.507Z,95.80
2017-12-23T04:36:42.991Z,95.63
2017-12-23T04:39:10.476Z,95.56
2017-12-23T04:41:37.956Z,95.65
2017-12-23T04:44:05.420Z,95.18
2017-12-23T04:46:32.904Z,94.98
2017-12-23T04:49:00.369Z,95.29
2017-12-23T04:51:27.849Z,94.77
2017-12-23T04:53:55.320Z,94.93
2017-12-23T04:56:22.800Z,95.26
2017-12-23T04:58:50.285Z,95.06
2017-12-23T05:01:17.769Z,94.66
2017-12-23T05:03:45.233Z,94.73
2017-12-23T05:06:12.701Z,94.93
2017-12-23T05:08:40.184Z,94.58
2017-12-23T05:11:07.656Z,94.47
2017-12-23T05:13:35.139Z,94.21
2017-12-23T05:16:02.688Z,94.05
2017-12-23T05:18:30.182Z,94.43
2017-12-23T05:20:57.653Z,94.48
2017-12-23T05:23:25.137Z,94.62
2017-12-23T05:25:52.600Z,94.46
2017-12-23T05:28:20.096Z,94.26
2017-12-23T05:30:47.571Z,94.58
2017-12-23T05:33:15.049Z,94.78
2017-12-23T05:35:42.517Z,94.54
2017-12-23T05:38:10.107Z,94.54
2017-12-23T05:40:37.584Z,94.78
2017-12-23T05:43:05.073Z,94.78
2017-12-23T05:45:32.540Z,94.72
2017-12-23T05:48:00.021Z,94.31
2017-12-23T05:50:27.488Z,94.57
2017-12-23T05:52:54.970Z,94.69
2017-12-23T05:55:22.432Z,94.58
2017-12-23T05:57:58.197Z,94.49
2017-12-23T06:00:25.660Z,94.16
2017-12-23T06:02:53.136Z,94.24
2017-12-23T06:05:20.602Z,94.46
2017-12-23T06:07:49.072Z,94.45
2017-12-23T06:10:16.544Z,94.26
2017-12-23T06:12:44.028Z,94.38
2017-12-23T06:15:11.508Z,93.93
2017-12-23T06:17:38.988Z,93.92
2017-12-23T06:20:06.457Z,93.74
2017-12-23T06:22:33.936Z,93.90
2017-12-23T06:25:01.409Z,93.85
2017-12-23T06:27:28.900Z,93.96
2017-12-23T06:29:56.374Z,93.67
2017-12-23T06:32:23.852Z,93.83
2017-12-23T06:34:51.314Z,93.52
2017-12-23T06:37:18.795Z,93.45
2017-12-23T06:39:46.268Z,93.55
2017-12-23T06:42:13.748Z,93.53
2017-12-23T06:44:41.221Z,93.40
2017-12-23T06:47:08.700Z,93.34
2017-12-23T06:49:36.194Z,93.54
2017-12-23T06:52:03.754Z,93.54
2017-12-23T06:54:31.220Z,93.42
2017-12-23T06:56:58.792Z,93.07
2017-12-23T06:59:26.269Z,93.29
2017-12-23T07:01:53.816Z,93.01
2017-12-23T07:04:21.292Z,93.16
2017-12-23T07:06:48.812Z,93.06
2017-12-23T07:09:16.284Z,93.05
2017-12-23T07:11:43.768Z,93.15
2017-12-23T07:14:11.237Z,93.32
2017-12-23T07:16:38.834Z,93.17
2017-12-23T07:19:06.300Z,93.42
2017-12-23T07:21:33.780Z,93.61
2017-12-23T07:24:01.245Z,93.42
2017-12-23T07:26:28.808Z,93.26
2017-12-23T07:28:56.278Z,93.27
2017-12-23T07:31:23.744Z,93.32
2017-12-23T07:33:51.225Z,93.33
2017-12-23T07:36:18.698Z,93.29
2017-12-23T07:38:46.179Z,93.05
2017-12-23T07:41:13.644Z,92.96
2017-12-23T07:43:41.122Z,93.08
2017-12-23T07:46:08.593Z,92.96
2017-12-23T07:48:36.076Z,92.80
2017-12-23T07:51:03.628Z,92.62
2017-12-23T07:53:31.132Z,92.72
2017-12-23T07:55:58.602Z,92.27
2017-12-23T07:58:26.083Z,92.13
2017-12-23T08:00:53.569Z,92.14
2017-12-23T08:03:21.052Z,92.31
2017-12-23T08:05:48.517Z,92.18
2017-12-23T08:08:16.004Z,92.24
2017-12-23T08:10:43.473Z,92.51
2017-12-23T08:13:10.957Z,92.15
2017-12-23T08:15:38.425Z,92.32
2017-12-23T08:18:05.913Z,91.86
2017-12-23T08:20:33.381Z,91.95
2017-12-23T08:23:00.859Z,91.88
2017-12-23T08:25:28.328Z,91.17
2017-12-23T08:27:55.818Z,91.80
2017-12-23T08:30:23.289Z,91.63
2017-12-23T08:32:50.845Z,91.50
2017-12-23T08:35:18.316Z,91.49
2017-12-23T08:37:45.797Z,91.38
2017-12-23T08:40:13.263Z,91.23
2017-12-23T08:42:40.745Z,91.42
2017-12-23T08:45:08.213Z,91.27
2017-12-23T08:47:35.696Z,90.81
2017-12-23T08:50:03.177Z,90.89
2017-12-23T08:52:30.649Z,91.25
2017-12-23T08:54:58.140Z,90.26
2017-12-23T08:57:25.609Z,90.21
2017-12-23T08:59:53.092Z,89.73
2017-12-23T09:02:20.643Z,89.54
2017-12-23T09:04:48.139Z,89.58
2017-12-23T09:07:15.652Z,89.95
2017-12-23T09:09:43.133Z,88.86
2017-12-23T09:12:10.616Z,89.03
2017-12-23T09:14:38.290Z,89.27
2017-12-23T09:17:05.757Z,88.34
2017-12-23T09:19:33.241Z,88.51
2017-12-23T09:22:00.806Z,88.81
2017-12-23T09:24:28.291Z,89.06
2017-12-23T09:26:55.756Z,89.33
2017-12-23T09:29:23.236Z,89.08
2017-12-23T09:31:50.782Z,89.11
2017-12-23T09:34:18.284Z,88.93
2017-12-23T09:36:45.764Z,88.61
2017-12-23T09:39:13.248Z,88.43
2017-12-23T09:41:40.713Z,88.94
2017-12-23T09:44:08.197Z,87.95
2017-12-23T09:46:35.661Z,88.51
2017-12-23T09:49:03.149Z,88.76
2017-12-23T09:51:30.624Z,88.34
2017-12-23T09:53:58.163Z,88.48
2017-12-23T09:56:25.637Z,89.04
2017-12-23T09:58:53.281Z,88.50
2017-12-23T10:01:20.744Z,88.36
2017-12-23T10:03:48.414Z,87.39
2017-12-23T10:06:15.904Z,87.94
2017-12-23T10:08:43.385Z,87.06
2017-12-23T10:11:10.860Z,87.40
2017-12-23T10:13:38.354Z,87.03
2017-12-23T10:16:05.828Z,87.06
2017-12-23T10:18:33.312Z,86.53
2017-12-23T10:21:00.777Z,86.89
2017-12-23T10:23:28.256Z,86.71
2017-12-23T10:25:55.729Z,87.31
2017-12-23T10:28:23.214Z,87.36
2017-12-23T10:30:50.696Z,86.88
2017-12-23T10:33:18.171Z,86.92
2017-12-23T10:35:45.664Z,86.29
2017-12-23T10:38:13.141Z,86.51
2017-12-23T10:40:40.620Z,85.82
2017-12-23T10:43:08.084Z,85.33
2017-12-23T10:45:35.596Z,85.29
2017-12-23T10:48:03.073Z,85.96
2017-12-23T10:50:30.572Z,85.61
2017-12-23T10:52:58.043Z,84.38
2017-12-23T10:55:25.521Z,85.32
2017-12-23T10:57:52.988Z,83.67
2017-12-23T11:00:20.469Z,84.30
2017-12-23T11:02:47.932Z,84.91
2017-12-23T11:05:15.412Z,83.90
2017-12-23T11:07:42.872Z,83.94
2017-12-23T11:10:10.356Z,84.21
2017-12-23T11:12:37.829Z,83.74
2017-12-23T11:15:05.308Z,83.74
2017-12-23T11:17:32.776Z,82.63
2017-12-23T11:20:00.256Z,81.84
2017-12-23T11:22:27.734Z,81.90
2017-12-23T11:24:55.221Z,81.47
2017-12-23T11:27:22.684Z,81.89
2017-12-23T11:29:50.167Z,81.35
2017-12-23T11:32:17.648Z,82.37
2017-12-23T11:34:45.135Z,82.36
2017-12-23T11:37:12.608Z,81.59
2017-12-23T11:39:40.097Z,80.68
2017-12-23T11:42:07.560Z,81.51
2017-12-23T11:44:35.057Z,81.91
2017-12-23T11:47:02.537Z,80.78
2017-12-23T11:49:30.053Z,80.93
2017-12-23T11:51:57.555Z,81.08
2017-12-23T11:54:25.117Z,81.33
2017-12-23T11:56:52.577Z,81.21
2017-12-23T11:59:20.056Z,80.80
2017-12-23T12:01:47.521Z,82.20
2017-12-23T12:04:15.007Z,80.91
2017-12-23T12:06:42.472Z,80.64
2017-12-23T12:09:09.952Z,82.03
2017-12-23T12:11:37.413Z,80.98
2017-12-23T12:14:04.963Z,81.17
2017-12-23T12:16:32.381Z,80.95
2017-12-23T12:18:59.865Z,81.08
2017-12-23T12:21:27.338Z,81.16
2017-12-23T12:23:54.813Z,80.96
2017-12-23T12:26:22.264Z,80.22
2017-12-23T12:28:49.741Z,80.27
2017-12-23T12:31:17.197Z,79.67
2017-12-23T12:33:44.673Z,78.91
2017-12-23T12:36:12.129Z,78.00
2017-12-23T12:38:39.604Z,78.45
2017-12-23T12:41:07.060Z,78.35
2017-12-23T12:43:34.532Z,75.79
2017-12-23T12:46:01.988Z,76.77
2017-12-23T12:48:29.464Z,76.92
2017-12-23T12:50:56.916Z,77.00
2017-12-23T12:53:24.369Z,77.61
2017-12-23T12:55:51.845Z,77.62
2017-12-23T12:58:19.297Z,77.17
2017-12-23T13:00:46.920Z,77.53
2017-12-23T13:03:14.624Z,76.51
2017-12-23T13:05:42.093Z,76.26
2017-12-23T13:08:09.553Z,76.64
2017-12-23T13:10:37.020Z,77.22
2017-12-23T13:13:04.481Z,76.36
2017-12-23T13:15:31.972Z,77.17
2017-12-23T13:17:59.454Z,76.48
2017-12-23T13:20:26.913Z,75.96
2017-12-23T13:22:54.393Z,76.73
2017-12-23T13:25:21.853Z,76.36
2017-12-23T13:27:49.325Z,76.50
2017-12-23T13:30:16.781Z,76.15
2017-12-23T13:32:44.252Z,76.45
2017-12-23T13:35:11.705Z,75.54
2017-12-23T13:37:39.180Z,75.45
2017-12-23T13:40:06.632Z,75.24
2017-12-23T13:42:34.109Z,75.41
2017-12-23T13:45:01.568Z,75.43
2017-12-23T13:47:29.040Z,75.70
2017-12-23T13:49:56.497Z,76.00
2017-12-23T13:52:23.973Z,76.60
2017-12-23T13:54:51.432Z,75.85
2017-12-23T13:57:18.909Z,76.56
2017-12-23T13:59:46.364Z,76.46
2017-12-23T14:02:13.845Z,76.85
2017-12-23T14:04:41.300Z,77.30
2017-12-23T14:07:08.781Z,77.54
2017-12-23T14:09:36.245Z,77.57
2017-12-23T14:12:03.721Z,77.25
2017-12-23T14:14:31.186Z,76.98
2017-12-23T14:16:59.608Z,76.61
2017-12-23T14:19:27.064Z,77.05
2017-12-23T14:21:54.548Z,77.58
2017-12-23T14:24:22.009Z,76.77
2017-12-23T14:26:49.484Z,76.39
2017-12-23T14:29:16.941Z,76.98
2017-12-23T14:31:44.413Z,77.03
2017-12-23T14:34:11.885Z,77.02
2017-12-23T14:36:39.714Z,77.38
2017-12-23T14:39:07.177Z,78.00
2017-12-23T14:41:34.649Z,77.87
2017-12-23T14:44:02.109Z,78.17
2017-12-23T14:46:29.581Z,78.42
2017-12-23T14:48:57.124Z,78.87
2017-12-23T14:51:24.669Z,78.92
2017-12-23T14:53:52.146Z,78.93
2017-12-23T14:56:19.609Z,79.60
2017-12-23T14:58:47.080Z,79.14
2017-12-23T15:01:14.541Z,79.58
2017-12-23T15:03:42.012Z,79.68
2017-12-23T15:06:09.468Z,80.14
2017-12-23T15:08:36.949Z,80.70
2017-12-23T15:11:04.413Z,80.69
2017-12-23T15:13:31.891Z,81.25
2017-12-23T15:15:59.405Z,81.52
2017-12-23T15:18:26.921Z,81.86
2017-12-23T15:20:54.378Z,81.92
2017-12-23T15:23:21.888Z,82.53
2017-12-23T15:25:49.341Z,82.50
2017-12-23T15:28:17.817Z,82.30
2017-12-23T15:30:45.273Z,81.98
2017-12-23T15:33:12.749Z,82.38
2017-12-23T15:35:40.214Z,82.61
2017-12-23T15:38:07.688Z,82.73
2017-12-23T15:40:35.148Z,82.95
2017-12-23T15:43:02.652Z,82.72
2017-12-23T15:45:30.107Z,82.74
2017-12-23T15:47:57.589Z,83.20
2017-12-23T15:50:28.895Z,83.41
2017-12-23T15:52:56.376Z,83.14
2017-12-23T15:55:23.841Z,83.07
2017-12-23T15:57:51.313Z,83.45
2017-12-23T16:00:18.769Z,83.47
2017-12-23T16:02:46.247Z,83.64
2017-12-23T16:05:13.708Z,83.93
2017-12-23T16:07:41.193Z,83.66
2017-12-23T16:10:08.656Z,83.54
2017-12-23T16:12:36.144Z,83.96
2017-12-23T16:15:03.609Z,84.07
2017-12-23T16:17:31.097Z,83.87
2017-12-23T16:19:58.563Z,84.54
2017-12-23T16:22:26.044Z,84.58
2017-12-23T16:24:53.509Z,84.64
2017-12-23T16:27:20.998Z,84.74
2017-12-23T16:29:48.463Z,84.29
2017-12-23T16:32:15.949Z,84.98
2017-12-23T16:34:43.412Z,85.18
2017-12-23T16:37:10.892Z,85.29
2017-12-23T16:39:38.404Z,85.41
2017-12-23T16:42:05.887Z,85.41
2017-12-23T16:44:33.395Z,85.66
2017-12-23T16:47:00.888Z,85.88
2017-12-23T16:49:28.420Z,85.96
2017-12-23T16:51:55.980Z,85.96
2017-12-23T16:54:23.508Z,86.00
2017-12-23T16:56:51.045Z,86.43
2017-12-23T16:59:18.609Z,86.62
2017-12-23T17:01:46.121Z,86.60
2017-12-23T17:04:13.700Z,86.73
2017-12-23T17:06:41.287Z,86.32
2017-12-23T17:09:08.836Z,86.26
2017-12-23T17:11:36.361Z,86.00
2017-12-23T17:14:03.917Z,85.88
2017-12-23T17:16:31.442Z,85.84
2017-12-23T17:18:58.924Z,85.80
2017-12-23T17:21:26.420Z,85.72
2017-12-23T17:23:54.080Z,85.41
2017-12-23T17:26:21.779Z,85.16
2017-12-23T17:29:01.066Z,85.32
2017-12-23T17:31:28.528Z,84.33
2017-12-23T17:33:56.021Z,84.39
2017-12-23T17:36:23.485Z,84.47
2017-12-23T17:38:51.087Z,84.47
2017-12-23T17:41:18.557Z,84.81
2017-12-23T17:43:46.041Z,84.99
2017-12-23T17:46:13.505Z,85.25
2017-12-23T17:48:41.129Z,85.42
2017-12-23T17:51:08.592Z,84.89
2017-12-23T17:53:36.072Z,85.37
2017-12-23T17:56:03.541Z,85.47
2017-12-23T17:58:31.027Z,85.41
2017-12-23T18:00:58.501Z,85.74
2017-12-23T18:03:25.981Z,85.90
2017-12-23T18:05:53.444Z,86.06
2017-12-23T18:08:20.941Z,86.09
2017-12-23T18:10:48.405Z,86.30
2017-12-23T18:13:15.885Z,86.21
2017-12-23T18:15:43.349Z,86.39
2017-12-23T18:18:10.840Z,86.49
2017-12-23T18:20:38.309Z,86.74
2017-12-23T18:23:05.808Z,87.04
2017-12-23T18:25:33.273Z,87.35
2017-12-23T18:28:00.754Z,87.35
2017-12-23T18:30:28.220Z,87.30
2017-12-23T18:32:55.705Z,87.79
2017-12-23T18:35:23.173Z,88.18
2017-12-23T18:37:50.657Z,88.00
2017-12-23T18:40:18.117Z,87.98
2017-12-23T18:42:45.596Z,87.82
2017-12-23T18:45:13.060Z,87.77
2017-12-23T18:47:40.540Z,88.03
2017-12-23T18:50:08.013Z,87.92
2017-12-23T18:52:35.496Z,87.97
2017-12-23T18:55:03.024Z,88.24
2017-12-23T18:57:30.504Z,87.85
2017-12-23T18:59:57.973Z,87.92
2017-12-23T19:02:25.443Z,87.86
2017-12-23T19:04:52.955Z,87.56
2017-12-23T19:07:20.417Z,86.81
2017-12-23T19:09:47.916Z,86.59
2017-12-23T19:12:15.381Z,85.94
2017-12-23T19:14:42.860Z,85.90
2017-12-23T19:17:10.330Z,85.86
2017-12-23T19:19:37.818Z,86.04
2017-12-23T19:22:05.320Z,85.97
2017-12-23T19:24:32.804Z,86.17
2017-12-23T19:27:00.274Z,85.99
2017-12-23T19:29:27.768Z,85.79
2017-12-23T19:31:55.232Z,85.65
2017-12-23T19:34:22.713Z,85.41
2017-12-23T19:36:50.178Z,84.78
2017-12-23T19:39:17.668Z,84.64
2017-12-23T19:41:45.133Z,84.82
2017-12-23T19:44:12.621Z,84.80
2017-12-23T19:46:40.085Z,84.64
2017-12-23T19:49:07.600Z,84.79
2017-12-23T19:51:35.069Z,84.66
2017-12-23T19:54:02.557Z,84.41
2017-12-23T19:56:30.024Z,84.62
2017-12-23T19:58:57.505Z,84.34
2017-12-23T20:01:24.972Z,84.16
2017-12-23T20:03:52.576Z,84.46
2017-12-23T20:06:20.041Z,84.02
2017-12-23T20:08:47.525Z,84.46
2017-12-23T20:11:14.993Z,84.42
2017-12-23T20:13:42.475Z,84.36
2017-12-23T20:16:09.941Z,84.66
2017-12-23T20:18:37.422Z,84.38
2017-12-23T20:21:04.900Z,84.67
2017-12-23T20:23:32.392Z,84.31
2017-12-23T20:25:59.856Z,84.58
2017-12-23T20:28:27.340Z,84.57
2017-12-23T20:30:54.803Z,84.76
2017-12-23T20:33:22.269Z,84.64
2017-12-23T20:35:49.747Z,84.99
2017-12-23T20:38:17.213Z,84.73
2017-12-23T20:40:44.700Z,84.65
2017-12-23T20:43:12.169Z,84.97
2017-12-23T20:45:39.649Z,84.95
2017-12-23T20:48:07.114Z,84.81
2017-12-23T20:50:34.596Z,84.98
2017-12-23T20:53:02.061Z,84.40
2017-12-23T20:55:29.629Z,84.66
2017-12-23T20:57:57.149Z,84.77
2017-12-23T21:00:24.629Z,84.53
2017-12-23T21:02:52.089Z,84.73
2017-12-23T21:05:19.571Z,85.04
2017-12-23T21:07:47.049Z,84.82
2017-12-23T21:10:14.528Z,84.80
2017-12-23T21:12:41.988Z,84.78
2017-12-23T21:15:09.472Z,84.89
2017-12-23T21:17:36.941Z,84.60
2017-12-23T21:20:04.425Z,84.77
2017-12-23T21:22:31.900Z,85.12
2017-12-23T21:24:59.396Z,84.36
2017-12-23T21:27:26.864Z,84.71
2017-12-23T21:29:54.352Z,84.70
2017-12-23T21:32:21.821Z,84.85
2017-12-23T21:34:49.300Z,84.86
2017-12-23T21:37:16.772Z,84.75
2017-12-23T21:39:44.257Z,84.90
2017-12-23T21:42:11.724Z,84.69
2017-12-23T21:44:39.200Z,84.88
2017-12-23T21:47:06.672Z,84.86
2017-12-23T21:49:34.158Z,84.70
2017-12-23T21:52:01.624Z,84.72
2017-12-23T21:54:29.114Z,84.78
2017-12-23T21:56:56.577Z,84.88
2017-12-23T21:59:24.162Z,84.86
2017-12-23T22:01:51.629Z,85.14
2017-12-23T22:04:19.117Z,84.92
2017-12-23T22:06:46.585Z,85.02
2017-12-23T22:09:14.093Z,85.01
2017-12-23T22:11:41.564Z,85.03
2017-12-23T22:14:09.048Z,85.22
2017-12-23T22:16:36.520Z,85.26
2017-12-23T22:19:04.001Z,85.29
2017-12-23T22:21:31.506Z,85.19
2017-12-23T22:23:58.978Z,85.12
2017-12-23T22:26:26.461Z,85.10
2017-12-23T22:28:54.367Z,85.19
2017-12-23T22:31:21.849Z,85.19
2017-12-23T22:33:49.312Z,85.40
2017-12-23T22:36:16.794Z,85.23
2017-12-23T22:38:44.266Z,85.38
2017-12-23T22:41:11.746Z,85.76
2017-12-23T22:43:39.209Z,85.64
2017-12-23T22:46:06.701Z,85.66
2017-12-23T22:48:34.185Z,85.78
2017-12-23T22:51:01.664Z,85.81
2017-12-23T22:53:29.129Z,85.75
2017-12-23T22:55:56.615Z,85.58
2017-12-23T22:58:24.081Z,85.69
2017-12-23T23:00:56.193Z,85.59
2017-12-23T23:03:23.657Z,85.57
2017-12-23T23:05:51.138Z,85.70
2017-12-23T23:08:18.604Z,85.76
2017-12-23T23:10:46.092Z,85.55
2017-12-23T23:13:13.552Z,85.63
2017-12-23T23:15:41.037Z,85.45
2017-12-23T23:18:08.501Z,85.32
2017-12-23T23:20:35.981Z,85.08
2017-12-23T23:23:03.443Z,84.90
2017-12-23T23:25:30.924Z,85.17
2017-12-23T23:27:58.389Z,85.09
2017-12-23T23:30:25.873Z,85.03
2017-12-23T23:32:53.336Z,84.91
2017-12-23T23:35:20.825Z,84.76
2017-12-23T23:37:48.297Z,84.89
2017-12-23T23:40:15.776Z,84.77
2017-12-23T23:42:43.240Z,84.75
2017-12-23T23:45:10.720Z,84.83
2017-12-23T23:47:38.185Z,84.82
2017-12-23T23:50:05.670Z,84.73
2017-12-23T23:52:33.140Z,84.83
2017-12-23T23:55:00.636Z,84.87
2017-12-23T23:57:28.101Z,84.76
2017-12-23T23:59:55.613Z,85.06
